sensor_id;sensor_type;location;lat;lon;timestamp;P1;durP1;ratioP1;P2;durP2;ratioP2
25207;SDS011;13153;52.316;21.166;2023-02-11T00:00:33;66.43;;;29.35;;
25207;SDS011;13153;52.316;21.166;2023-02-11T00:02:59;67.88;;;30.17;;
25207;SDS011;13153;52.316;21.166;2023-02-11T00:05:25;71.03;;;29.58;;
25207;SDS011;13153;52.316;21.166;2023-02-11T00:07:50;63.08;;;27.60;;
25207;SDS011;13153;52.316;21.166;2023-02-11T00:10:16;70.20;;;28.23;;
25207;SDS011;13153;52.316;21.166;2023-02-11T00:12:42;66.30;;;28.77;;
25207;SDS011;13153;52.316;21.166;2023-02-11T00:15:08;63.10;;;27.67;;
25207;SDS011;13153;52.316;21.166;2023-02-11T00:17:35;54.42;;;26.60;;
25207;SDS011;13153;52.316;21.166;2023-02-11T00:20:00;64.03;;;28.23;;
25207;SDS011;13153;52.316;21.166;2023-02-11T00:22:26;60.58;;;27.60;;
25207;SDS011;13153;52.316;21.166;2023-02-11T00:24:52;59.42;;;26.52;;
25207;SDS011;13153;52.316;21.166;2023-02-11T00:27:18;58.78;;;26.55;;
25207;SDS011;13153;52.316;21.166;2023-02-11T00:29:44;59.55;;;25.98;;
25207;SDS011;13153;52.316;21.166;2023-02-11T00:32:10;59.72;;;24.98;;
25207;SDS011;13153;52.316;21.166;2023-02-11T00:34:36;56.92;;;24.77;;
25207;SDS011;13153;52.316;21.166;2023-02-11T00:37:02;60.33;;;24.90;;
25207;SDS011;13153;52.316;21.166;2023-02-11T00:39:30;51.03;;;23.42;;
25207;SDS011;13153;52.316;21.166;2023-02-11T00:41:56;56.25;;;22.75;;
25207;SDS011;13153;52.316;21.166;2023-02-11T00:44:22;49.78;;;22.23;;
25207;SDS011;13153;52.316;21.166;2023-02-11T00:46:48;50.63;;;21.35;;
25207;SDS011;13153;52.316;21.166;2023-02-11T00:49:14;51.40;;;22.20;;
25207;SDS011;13153;52.316;21.166;2023-02-11T00:51:40;46.75;;;20.25;;
25207;SDS011;13153;52.316;21.166;2023-02-11T00:54:06;50.58;;;20.50;;
25207;SDS011;13153;52.316;21.166;2023-02-11T00:56:32;42.83;;;19.02;;
25207;SDS011;13153;52.316;21.166;2023-02-11T00:58:58;40.83;;;18.35;;
25207;SDS011;13153;52.316;21.166;2023-02-11T01:01:24;45.40;;;18.67;;
25207;SDS011;13153;52.316;21.166;2023-02-11T01:03:50;41.10;;;18.60;;
25207;SDS011;13153;52.316;21.166;2023-02-11T01:06:16;38.83;;;17.33;;
25207;SDS011;13153;52.316;21.166;2023-02-11T01:08:43;37.72;;;17.48;;
25207;SDS011;13153;52.316;21.166;2023-02-11T01:11:13;34.20;;;16.42;;
25207;SDS011;13153;52.316;21.166;2023-02-11T01:13:44;39.28;;;17.65;;
25207;SDS011;13153;52.316;21.166;2023-02-11T01:16:12;38.30;;;16.23;;
25207;SDS011;13153;52.316;21.166;2023-02-11T01:18:38;38.00;;;16.73;;
25207;SDS011;13153;52.316;21.166;2023-02-11T01:21:06;41.22;;;17.77;;
25207;SDS011;13153;52.316;21.166;2023-02-11T01:23:31;36.63;;;16.45;;
25207;SDS011;13153;52.316;21.166;2023-02-11T01:25:57;38.40;;;15.80;;
25207;SDS011;13153;52.316;21.166;2023-02-11T01:28:24;37.35;;;16.42;;
25207;SDS011;13153;52.316;21.166;2023-02-11T01:30:53;37.15;;;16.52;;
25207;SDS011;13153;52.316;21.166;2023-02-11T01:33:20;40.05;;;17.27;;
25207;SDS011;13153;52.316;21.166;2023-02-11T01:35:47;45.97;;;18.00;;
25207;SDS011;13153;52.316;21.166;2023-02-11T01:38:17;43.88;;;17.73;;
25207;SDS011;13153;52.316;21.166;2023-02-11T01:40:50;38.78;;;16.92;;
25207;SDS011;13153;52.316;21.166;2023-02-11T01:43:24;38.20;;;16.98;;
25207;SDS011;13153;52.316;21.166;2023-02-11T01:45:54;37.20;;;18.05;;
25207;SDS011;13153;52.316;21.166;2023-02-11T01:48:57;42.28;;;17.88;;
25207;SDS011;13153;52.316;21.166;2023-02-11T01:51:36;36.97;;;16.52;;
25207;SDS011;13153;52.316;21.166;2023-02-11T01:54:08;37.85;;;17.13;;
25207;SDS011;13153;52.316;21.166;2023-02-11T01:56:57;49.47;;;19.40;;
25207;SDS011;13153;52.316;21.166;2023-02-11T01:59:53;38.72;;;17.95;;
25207;SDS011;13153;52.316;21.166;2023-02-11T02:08:06;36.35;;;16.48;;
25207;SDS011;13153;52.316;21.166;2023-02-11T02:10:39;44.10;;;17.35;;
25207;SDS011;13153;52.316;21.166;2023-02-11T02:13:09;42.33;;;18.63;;
25207;SDS011;13153;52.316;21.166;2023-02-11T02:15:36;43.42;;;18.63;;
25207;SDS011;13153;52.316;21.166;2023-02-11T02:18:19;44.63;;;20.00;;
25207;SDS011;13153;52.316;21.166;2023-02-11T02:41:21;49.17;;;19.70;;
25207;SDS011;13153;52.316;21.166;2023-02-11T02:43:53;45.55;;;20.40;;
25207;SDS011;13153;52.316;21.166;2023-02-11T02:46:30;44.88;;;20.02;;
25207;SDS011;13153;52.316;21.166;2023-02-11T02:48:58;41.67;;;19.45;;
25207;SDS011;13153;52.316;21.166;2023-02-11T02:57:06;48.72;;;19.13;;
25207;SDS011;13153;52.316;21.166;2023-02-11T03:04:49;48.67;;;20.02;;
25207;SDS011;13153;52.316;21.166;2023-02-11T03:10:35;42.58;;;18.42;;
25207;SDS011;13153;52.316;21.166;2023-02-11T03:13:07;46.13;;;18.65;;
25207;SDS011;13153;52.316;21.166;2023-02-11T03:15:36;41.38;;;18.55;;
25207;SDS011;13153;52.316;21.166;2023-02-11T03:18:09;45.17;;;19.15;;
25207;SDS011;13153;52.316;21.166;2023-02-11T03:20:42;37.97;;;18.45;;
25207;SDS011;13153;52.316;21.166;2023-02-11T03:29:39;48.78;;;18.90;;
25207;SDS011;13153;52.316;21.166;2023-02-11T03:32:25;42.58;;;18.17;;
25207;SDS011;13153;52.316;21.166;2023-02-11T03:35:31;45.35;;;17.83;;
25207;SDS011;13153;52.316;21.166;2023-02-11T03:37:58;42.72;;;16.95;;
25207;SDS011;13153;52.316;21.166;2023-02-11T03:40:33;40.95;;;17.88;;
25207;SDS011;13153;52.316;21.166;2023-02-11T03:43:07;35.10;;;16.85;;
25207;SDS011;13153;52.316;21.166;2023-02-11T03:45:47;44.57;;;17.13;;
25207;SDS011;13153;52.316;21.166;2023-02-11T03:48:24;40.10;;;16.88;;
25207;SDS011;13153;52.316;21.166;2023-02-11T03:51:05;39.15;;;17.15;;
25207;SDS011;13153;52.316;21.166;2023-02-11T03:53:34;47.47;;;18.08;;
25207;SDS011;13153;52.316;21.166;2023-02-11T03:56:05;40.17;;;17.65;;
25207;SDS011;13153;52.316;21.166;2023-02-11T03:58:37;42.10;;;17.38;;
25207;SDS011;13153;52.316;21.166;2023-02-11T04:01:03;45.70;;;17.58;;
25207;SDS011;13153;52.316;21.166;2023-02-11T04:03:33;42.22;;;17.13;;
25207;SDS011;13153;52.316;21.166;2023-02-11T04:05:59;39.83;;;17.02;;
25207;SDS011;13153;52.316;21.166;2023-02-11T04:08:26;44.83;;;17.85;;
25207;SDS011;13153;52.316;21.166;2023-02-11T04:10:52;39.80;;;17.52;;
25207;SDS011;13153;52.316;21.166;2023-02-11T04:13:17;40.83;;;17.70;;
25207;SDS011;13153;52.316;21.166;2023-02-11T04:15:43;45.30;;;19.05;;
25207;SDS011;13153;52.316;21.166;2023-02-11T04:18:09;42.05;;;18.80;;
25207;SDS011;13153;52.316;21.166;2023-02-11T04:20:35;45.10;;;19.83;;
25207;SDS011;13153;52.316;21.166;2023-02-11T04:23:00;41.58;;;18.20;;
25207;SDS011;13153;52.316;21.166;2023-02-11T04:25:27;46.50;;;19.85;;
25207;SDS011;13153;52.316;21.166;2023-02-11T04:27:53;45.90;;;18.95;;
25207;SDS011;13153;52.316;21.166;2023-02-11T04:30:19;44.75;;;20.10;;
25207;SDS011;13153;52.316;21.166;2023-02-11T04:32:45;44.80;;;19.92;;
25207;SDS011;13153;52.316;21.166;2023-02-11T04:35:10;46.95;;;20.40;;
25207;SDS011;13153;52.316;21.166;2023-02-11T04:37:36;45.05;;;20.70;;
25207;SDS011;13153;52.316;21.166;2023-02-11T04:40:02;45.63;;;21.05;;
25207;SDS011;13153;52.316;21.166;2023-02-11T04:42:28;43.53;;;21.80;;
25207;SDS011;13153;52.316;21.166;2023-02-11T04:44:54;49.30;;;21.92;;
25207;SDS011;13153;52.316;21.166;2023-02-11T04:47:20;46.97;;;22.73;;
25207;SDS011;13153;52.316;21.166;2023-02-11T04:49:46;53.20;;;23.02;;
25207;SDS011;13153;52.316;21.166;2023-02-11T04:52:12;54.92;;;22.73;;
25207;SDS011;13153;52.316;21.166;2023-02-11T04:54:37;47.05;;;21.63;;
25207;SDS011;13153;52.316;21.166;2023-02-11T04:57:03;49.17;;;22.60;;
25207;SDS011;13153;52.316;21.166;2023-02-11T04:59:29;51.20;;;22.63;;
25207;SDS011;13153;52.316;21.166;2023-02-11T05:01:55;49.22;;;21.95;;
25207;SDS011;13153;52.316;21.166;2023-02-11T05:04:21;42.55;;;22.65;;
25207;SDS011;13153;52.316;21.166;2023-02-11T05:06:46;49.10;;;23.25;;
25207;SDS011;13153;52.316;21.166;2023-02-11T05:09:13;51.38;;;22.35;;
25207;SDS011;13153;52.316;21.166;2023-02-11T05:11:39;51.22;;;24.23;;
25207;SDS011;13153;52.316;21.166;2023-02-11T05:14:05;45.38;;;22.58;;
25207;SDS011;13153;52.316;21.166;2023-02-11T05:16:31;50.70;;;23.15;;
25207;SDS011;13153;52.316;21.166;2023-02-11T05:18:57;49.65;;;23.10;;
25207;SDS011;13153;52.316;21.166;2023-02-11T05:21:23;47.25;;;23.13;;
25207;SDS011;13153;52.316;21.166;2023-02-11T05:23:50;49.42;;;23.85;;
25207;SDS011;13153;52.316;21.166;2023-02-11T05:26:16;49.92;;;23.58;;
25207;SDS011;13153;52.316;21.166;2023-02-11T05:28:42;54.78;;;23.33;;
25207;SDS011;13153;52.316;21.166;2023-02-11T05:31:09;49.15;;;24.42;;
25207;SDS011;13153;52.316;21.166;2023-02-11T05:33:36;51.20;;;23.67;;
25207;SDS011;13153;52.316;21.166;2023-02-11T05:36:03;54.95;;;24.13;;
25207;SDS011;13153;52.316;21.166;2023-02-11T05:38:33;49.70;;;23.52;;
25207;SDS011;13153;52.316;21.166;2023-02-11T05:40:59;48.78;;;24.23;;
25207;SDS011;13153;52.316;21.166;2023-02-11T05:43:26;47.08;;;23.75;;
25207;SDS011;13153;52.316;21.166;2023-02-11T05:45:52;52.00;;;24.67;;
25207;SDS011;13153;52.316;21.166;2023-02-11T05:48:18;53.78;;;25.23;;
25207;SDS011;13153;52.316;21.166;2023-02-11T05:50:44;53.50;;;23.80;;
25207;SDS011;13153;52.316;21.166;2023-02-11T05:53:10;47.33;;;22.77;;
25207;SDS011;13153;52.316;21.166;2023-02-11T05:55:36;46.58;;;23.23;;
25207;SDS011;13153;52.316;21.166;2023-02-11T05:58:02;51.92;;;24.63;;
25207;SDS011;13153;52.316;21.166;2023-02-11T06:00:29;50.80;;;25.67;;
25207;SDS011;13153;52.316;21.166;2023-02-11T06:02:55;48.05;;;23.50;;
25207;SDS011;13153;52.316;21.166;2023-02-11T06:05:21;51.10;;;24.67;;
25207;SDS011;13153;52.316;21.166;2023-02-11T06:07:47;50.45;;;24.42;;
25207;SDS011;13153;52.316;21.166;2023-02-11T06:10:13;54.47;;;24.92;;
25207;SDS011;13153;52.316;21.166;2023-02-11T06:12:39;52.17;;;25.63;;
25207;SDS011;13153;52.316;21.166;2023-02-11T06:15:05;48.70;;;24.90;;
25207;SDS011;13153;52.316;21.166;2023-02-11T06:17:31;50.35;;;24.92;;
25207;SDS011;13153;52.316;21.166;2023-02-11T06:19:58;47.70;;;23.13;;
25207;SDS011;13153;52.316;21.166;2023-02-11T06:22:26;55.70;;;26.20;;
25207;SDS011;13153;52.316;21.166;2023-02-11T06:24:52;52.17;;;25.17;;
25207;SDS011;13153;52.316;21.166;2023-02-11T06:27:19;50.30;;;24.67;;
25207;SDS011;13153;52.316;21.166;2023-02-11T06:29:45;51.33;;;24.83;;
25207;SDS011;13153;52.316;21.166;2023-02-11T06:32:12;52.35;;;26.50;;
25207;SDS011;13153;52.316;21.166;2023-02-11T06:34:38;57.75;;;25.45;;
25207;SDS011;13153;52.316;21.166;2023-02-11T06:37:04;52.50;;;25.45;;
25207;SDS011;13153;52.316;21.166;2023-02-11T06:39:30;58.47;;;26.45;;
25207;SDS011;13153;52.316;21.166;2023-02-11T06:41:56;49.65;;;24.73;;
25207;SDS011;13153;52.316;21.166;2023-02-11T06:44:22;60.30;;;26.10;;
25207;SDS011;13153;52.316;21.166;2023-02-11T06:46:48;51.45;;;26.13;;
25207;SDS011;13153;52.316;21.166;2023-02-11T06:49:14;53.90;;;26.38;;
25207;SDS011;13153;52.316;21.166;2023-02-11T06:51:40;55.20;;;26.17;;
25207;SDS011;13153;52.316;21.166;2023-02-11T06:54:06;54.80;;;27.13;;
25207;SDS011;13153;52.316;21.166;2023-02-11T06:56:32;53.10;;;26.65;;
25207;SDS011;13153;52.316;21.166;2023-02-11T06:58:59;61.08;;;28.38;;
25207;SDS011;13153;52.316;21.166;2023-02-11T07:01:25;60.97;;;26.55;;
25207;SDS011;13153;52.316;21.166;2023-02-11T07:03:52;51.70;;;26.58;;
25207;SDS011;13153;52.316;21.166;2023-02-11T07:06:20;57.00;;;27.75;;
25207;SDS011;13153;52.316;21.166;2023-02-11T07:08:50;57.08;;;27.67;;
25207;SDS011;13153;52.316;21.166;2023-02-11T07:11:19;53.70;;;26.77;;
25207;SDS011;13153;52.316;21.166;2023-02-11T07:13:52;60.53;;;27.70;;
25207;SDS011;13153;52.316;21.166;2023-02-11T07:16:23;62.13;;;29.88;;
25207;SDS011;13153;52.316;21.166;2023-02-11T07:18:49;59.63;;;28.92;;
25207;SDS011;13153;52.316;21.166;2023-02-11T07:21:16;57.42;;;27.95;;
25207;SDS011;13153;52.316;21.166;2023-02-11T07:23:45;65.53;;;31.38;;
25207;SDS011;13153;52.316;21.166;2023-02-11T07:26:13;61.75;;;30.27;;
25207;SDS011;13153;52.316;21.166;2023-02-11T07:28:43;65.10;;;30.42;;
25207;SDS011;13153;52.316;21.166;2023-02-11T07:31:10;65.13;;;31.30;;
25207;SDS011;13153;52.316;21.166;2023-02-11T07:33:46;62.05;;;30.70;;
25207;SDS011;13153;52.316;21.166;2023-02-11T07:36:13;64.60;;;31.73;;
25207;SDS011;13153;52.316;21.166;2023-02-11T07:38:40;62.88;;;31.50;;
25207;SDS011;13153;52.316;21.166;2023-02-11T07:41:11;66.82;;;32.13;;
25207;SDS011;13153;52.316;21.166;2023-02-11T07:43:40;70.60;;;33.00;;
25207;SDS011;13153;52.316;21.166;2023-02-11T07:46:08;65.53;;;32.35;;
25207;SDS011;13153;52.316;21.166;2023-02-11T07:49:06;70.63;;;33.17;;
25207;SDS011;13153;52.316;21.166;2023-02-11T07:51:33;63.90;;;31.77;;
25207;SDS011;13153;52.316;21.166;2023-02-11T07:53:59;64.90;;;32.40;;
25207;SDS011;13153;52.316;21.166;2023-02-11T07:56:27;69.88;;;34.03;;
25207;SDS011;13153;52.316;21.166;2023-02-11T07:58:54;70.88;;;33.78;;
25207;SDS011;13153;52.316;21.166;2023-02-11T08:01:25;72.32;;;34.22;;
25207;SDS011;13153;52.316;21.166;2023-02-11T08:03:52;70.43;;;34.30;;
25207;SDS011;13153;52.316;21.166;2023-02-11T08:06:25;68.45;;;35.17;;
25207;SDS011;13153;52.316;21.166;2023-02-11T08:08:54;69.50;;;35.60;;
25207;SDS011;13153;52.316;21.166;2023-02-11T08:11:23;70.88;;;35.22;;
25207;SDS011;13153;52.316;21.166;2023-02-11T08:13:52;77.47;;;36.85;;
25207;SDS011;13153;52.316;21.166;2023-02-11T08:16:21;73.65;;;36.42;;
25207;SDS011;13153;52.316;21.166;2023-02-11T08:18:49;78.10;;;37.75;;
25207;SDS011;13153;52.316;21.166;2023-02-11T08:21:17;82.00;;;38.67;;
25207;SDS011;13153;52.316;21.166;2023-02-11T08:23:44;77.05;;;37.53;;
25207;SDS011;13153;52.316;21.166;2023-02-11T08:26:15;80.90;;;39.03;;
25207;SDS011;13153;52.316;21.166;2023-02-11T08:28:44;82.03;;;38.80;;
25207;SDS011;13153;52.316;21.166;2023-02-11T08:31:16;76.75;;;38.58;;
25207;SDS011;13153;52.316;21.166;2023-02-11T08:33:46;77.18;;;38.78;;
25207;SDS011;13153;52.316;21.166;2023-02-11T08:36:16;81.50;;;38.20;;
25207;SDS011;13153;52.316;21.166;2023-02-11T08:38:49;82.80;;;38.97;;
25207;SDS011;13153;52.316;21.166;2023-02-11T08:41:15;80.65;;;37.75;;
25207;SDS011;13153;52.316;21.166;2023-02-11T08:43:42;77.03;;;38.53;;
25207;SDS011;13153;52.316;21.166;2023-02-11T08:46:11;70.88;;;35.83;;
25207;SDS011;13153;52.316;21.166;2023-02-11T08:48:41;77.57;;;37.63;;
25207;SDS011;13153;52.316;21.166;2023-02-11T08:51:09;72.80;;;36.67;;
25207;SDS011;13153;52.316;21.166;2023-02-11T08:53:44;74.63;;;37.47;;
25207;SDS011;13153;52.316;21.166;2023-02-11T08:56:11;74.72;;;37.03;;
25207;SDS011;13153;52.316;21.166;2023-02-11T08:58:39;77.50;;;37.25;;
25207;SDS011;13153;52.316;21.166;2023-02-11T09:01:12;77.05;;;37.30;;
25207;SDS011;13153;52.316;21.166;2023-02-11T09:03:42;76.65;;;38.42;;
25207;SDS011;13153;52.316;21.166;2023-02-11T09:06:09;74.40;;;37.72;;
25207;SDS011;13153;52.316;21.166;2023-02-11T09:08:38;81.28;;;39.40;;
25207;SDS011;13153;52.316;21.166;2023-02-11T09:11:08;74.78;;;38.35;;
25207;SDS011;13153;52.316;21.166;2023-02-11T09:13:35;73.60;;;37.20;;
25207;SDS011;13153;52.316;21.166;2023-02-11T09:16:02;75.75;;;37.38;;
25207;SDS011;13153;52.316;21.166;2023-02-11T09:18:29;77.03;;;37.80;;
25207;SDS011;13153;52.316;21.166;2023-02-11T09:21:03;73.68;;;37.47;;
25207;SDS011;13153;52.316;21.166;2023-02-11T09:23:33;76.93;;;38.55;;
25207;SDS011;13153;52.316;21.166;2023-02-11T09:26:04;76.22;;;37.63;;
25207;SDS011;13153;52.316;21.166;2023-02-11T09:28:32;81.22;;;38.92;;
25207;SDS011;13153;52.316;21.166;2023-02-11T09:30:57;76.40;;;37.60;;
25207;SDS011;13153;52.316;21.166;2023-02-11T09:33:23;83.35;;;38.90;;
25207;SDS011;13153;52.316;21.166;2023-02-11T09:35:49;75.18;;;37.25;;
25207;SDS011;13153;52.316;21.166;2023-02-11T09:38:15;85.35;;;39.67;;
25207;SDS011;13153;52.316;21.166;2023-02-11T09:40:41;74.70;;;36.03;;
25207;SDS011;13153;52.316;21.166;2023-02-11T09:43:19;84.22;;;39.53;;
25207;SDS011;13153;52.316;21.166;2023-02-11T09:45:48;82.95;;;38.38;;
25207;SDS011;13153;52.316;21.166;2023-02-11T09:48:18;86.05;;;41.28;;
25207;SDS011;13153;52.316;21.166;2023-02-11T09:50:48;80.85;;;39.55;;
25207;SDS011;13153;52.316;21.166;2023-02-11T09:55:58;73.88;;;36.97;;
25207;SDS011;13153;52.316;21.166;2023-02-11T09:58:27;73.13;;;37.00;;
25207;SDS011;13153;52.316;21.166;2023-02-11T10:01:05;79.18;;;38.83;;
25207;SDS011;13153;52.316;21.166;2023-02-11T10:04:05;78.03;;;37.60;;
25207;SDS011;13153;52.316;21.166;2023-02-11T10:06:45;77.82;;;39.00;;
25207;SDS011;13153;52.316;21.166;2023-02-11T10:23:50;78.18;;;38.60;;
25207;SDS011;13153;52.316;21.166;2023-02-11T10:26:21;77.93;;;38.47;;
25207;SDS011;13153;52.316;21.166;2023-02-11T10:28:48;78.82;;;38.72;;
25207;SDS011;13153;52.316;21.166;2023-02-11T10:31:20;75.30;;;37.20;;
25207;SDS011;13153;52.316;21.166;2023-02-11T10:34:05;81.28;;;39.28;;
25207;SDS011;13153;52.316;21.166;2023-02-11T10:36:40;80.25;;;38.22;;
25207;SDS011;13153;52.316;21.166;2023-02-11T10:39:09;78.30;;;38.28;;
25207;SDS011;13153;52.316;21.166;2023-02-11T10:44:59;75.28;;;38.42;;
25207;SDS011;13153;52.316;21.166;2023-02-11T10:47:20;75.30;;;37.03;;
25207;SDS011;13153;52.316;21.166;2023-02-11T10:49:50;79.07;;;38.03;;
25207;SDS011;13153;52.316;21.166;2023-02-11T10:54:59;80.53;;;38.65;;
25207;SDS011;13153;52.316;21.166;2023-02-11T10:57:32;79.53;;;38.83;;
25207;SDS011;13153;52.316;21.166;2023-02-11T11:00:14;86.65;;;41.63;;
25207;SDS011;13153;52.316;21.166;2023-02-11T11:02:51;84.90;;;40.42;;
25207;SDS011;13153;52.316;21.166;2023-02-11T11:05:28;84.53;;;41.17;;
25207;SDS011;13153;52.316;21.166;2023-02-11T11:08:01;89.63;;;43.47;;
25207;SDS011;13153;52.316;21.166;2023-02-11T11:13:40;90.03;;;42.92;;
25207;SDS011;13153;52.316;21.166;2023-02-11T11:21:47;106.28;;;46.90;;
25207;SDS011;13153;52.316;21.166;2023-02-11T11:24:24;106.55;;;48.65;;
25207;SDS011;13153;52.316;21.166;2023-02-11T11:26:57;106.63;;;48.30;;
25207;SDS011;13153;52.316;21.166;2023-02-11T11:29:41;104.22;;;49.05;;
25207;SDS011;13153;52.316;21.166;2023-02-11T11:32:24;112.97;;;49.80;;
25207;SDS011;13153;52.316;21.166;2023-02-11T11:35:01;108.50;;;49.88;;
25207;SDS011;13153;52.316;21.166;2023-02-11T11:37:36;109.38;;;50.05;;
25207;SDS011;13153;52.316;21.166;2023-02-11T11:43:00;107.93;;;48.40;;
25207;SDS011;13153;52.316;21.166;2023-02-11T11:45:27;105.38;;;49.13;;
25207;SDS011;13153;52.316;21.166;2023-02-11T11:50:34;104.60;;;47.60;;
25207;SDS011;13153;52.316;21.166;2023-02-11T11:56:08;100.00;;;46.20;;
25207;SDS011;13153;52.316;21.166;2023-02-11T11:58:59;105.00;;;45.63;;
25207;SDS011;13153;52.316;21.166;2023-02-11T12:05:18;100.68;;;45.45;;
25207;SDS011;13153;52.316;21.166;2023-02-11T12:13:58;104.03;;;45.22;;
25207;SDS011;13153;52.316;21.166;2023-02-11T12:16:56;97.18;;;45.53;;
25207;SDS011;13153;52.316;21.166;2023-02-11T12:40:42;106.10;;;50.08;;
25207;SDS011;13153;52.316;21.166;2023-02-11T12:46:04;110.10;;;50.15;;
25207;SDS011;13153;52.316;21.166;2023-02-11T12:57:00;118.25;;;52.45;;
25207;SDS011;13153;52.316;21.166;2023-02-11T13:02:33;108.88;;;51.63;;
25207;SDS011;13153;52.316;21.166;2023-02-11T13:05:33;113.05;;;53.75;;
25207;SDS011;13153;52.316;21.166;2023-02-11T13:11:25;116.05;;;54.47;;
25207;SDS011;13153;52.316;21.166;2023-02-11T13:14:00;115.75;;;52.70;;
25207;SDS011;13153;52.316;21.166;2023-02-11T13:16:42;112.35;;;53.05;;
25207;SDS011;13153;52.316;21.166;2023-02-11T13:22:23;106.22;;;50.15;;
25207;SDS011;13153;52.316;21.166;2023-02-11T13:25:01;100.93;;;48.75;;
25207;SDS011;13153;52.316;21.166;2023-02-11T13:30:24;106.60;;;50.55;;
25207;SDS011;13153;52.316;21.166;2023-02-11T13:33:02;100.55;;;49.60;;
25207;SDS011;13153;52.316;21.166;2023-02-11T13:35:43;104.05;;;48.17;;
25207;SDS011;13153;52.316;21.166;2023-02-11T13:38:23;105.47;;;49.85;;
25207;SDS011;13153;52.316;21.166;2023-02-11T13:43:28;107.13;;;49.47;;
25207;SDS011;13153;52.316;21.166;2023-02-11T13:46:07;95.72;;;47.10;;
25207;SDS011;13153;52.316;21.166;2023-02-11T13:48:44;104.60;;;47.95;;
25207;SDS011;13153;52.316;21.166;2023-02-11T13:51:15;100.38;;;47.88;;
25207;SDS011;13153;52.316;21.166;2023-02-11T13:53:57;105.00;;;47.78;;
25207;SDS011;13153;52.316;21.166;2023-02-11T13:59:00;93.88;;;46.28;;
25207;SDS011;13153;52.316;21.166;2023-02-11T14:10:53;90.00;;;44.30;;
25207;SDS011;13153;52.316;21.166;2023-02-11T14:16:06;99.70;;;46.85;;
25207;SDS011;13153;52.316;21.166;2023-02-11T14:29:27;96.40;;;45.40;;
25207;SDS011;13153;52.316;21.166;2023-02-11T14:35:26;92.72;;;43.78;;
25207;SDS011;13153;52.316;21.166;2023-02-11T14:41:08;93.10;;;45.65;;
25207;SDS011;13153;52.316;21.166;2023-02-11T14:43:57;100.38;;;46.20;;
25207;SDS011;13153;52.316;21.166;2023-02-11T14:46:28;93.38;;;44.90;;
25207;SDS011;13153;52.316;21.166;2023-02-11T14:48:59;84.60;;;40.97;;
25207;SDS011;13153;52.316;21.166;2023-02-11T14:51:30;85.90;;;41.80;;
25207;SDS011;13153;52.316;21.166;2023-02-11T14:54:13;86.63;;;42.63;;
25207;SDS011;13153;52.316;21.166;2023-02-11T14:56:46;81.35;;;40.92;;
25207;SDS011;13153;52.316;21.166;2023-02-11T15:02:45;88.50;;;41.53;;
25207;SDS011;13153;52.316;21.166;2023-02-11T15:05:16;83.18;;;41.38;;
25207;SDS011;13153;52.316;21.166;2023-02-11T15:07:48;89.65;;;42.28;;
25207;SDS011;13153;52.316;21.166;2023-02-11T15:12:59;77.55;;;38.88;;
25207;SDS011;13153;52.316;21.166;2023-02-11T15:15:28;79.97;;;40.45;;
25207;SDS011;13153;52.316;21.166;2023-02-11T15:17:57;81.25;;;39.75;;
25207;SDS011;13153;52.316;21.166;2023-02-11T15:20:27;82.97;;;39.40;;
25207;SDS011;13153;52.316;21.166;2023-02-11T15:22:58;80.97;;;39.20;;
25207;SDS011;13153;52.316;21.166;2023-02-11T15:25:29;83.88;;;41.50;;
25207;SDS011;13153;52.316;21.166;2023-02-11T15:27:56;83.63;;;40.47;;
25207;SDS011;13153;52.316;21.166;2023-02-11T15:32:54;76.55;;;37.38;;
25207;SDS011;13153;52.316;21.166;2023-02-11T15:35:37;73.45;;;38.20;;
25207;SDS011;13153;52.316;21.166;2023-02-11T15:38:05;81.53;;;39.20;;
25207;SDS011;13153;52.316;21.166;2023-02-11T15:40:33;72.85;;;37.65;;
25207;SDS011;13153;52.316;21.166;2023-02-11T15:43:02;74.57;;;37.65;;
25207;SDS011;13153;52.316;21.166;2023-02-11T15:45:38;76.78;;;40.00;;
25207;SDS011;13153;52.316;21.166;2023-02-11T15:48:16;71.55;;;37.75;;
25207;SDS011;13153;52.316;21.166;2023-02-11T15:50:49;78.65;;;38.17;;
25207;SDS011;13153;52.316;21.166;2023-02-11T15:56:06;73.28;;;35.75;;
25207;SDS011;13153;52.316;21.166;2023-02-11T15:58:51;72.75;;;36.33;;
25207;SDS011;13153;52.316;21.166;2023-02-11T16:01:30;70.00;;;35.15;;
25207;SDS011;13153;52.316;21.166;2023-02-11T16:04:00;69.05;;;35.05;;
25207;SDS011;13153;52.316;21.166;2023-02-11T16:06:36;69.75;;;34.55;;
25207;SDS011;13153;52.316;21.166;2023-02-11T16:09:30;69.32;;;36.00;;
25207;SDS011;13153;52.316;21.166;2023-02-11T16:12:00;64.22;;;32.30;;
25207;SDS011;13153;52.316;21.166;2023-02-11T16:14:46;67.05;;;31.80;;
25207;SDS011;13153;52.316;21.166;2023-02-11T16:17:25;60.42;;;32.38;;
25207;SDS011;13153;52.316;21.166;2023-02-11T16:19:53;63.92;;;32.58;;
25207;SDS011;13153;52.316;21.166;2023-02-11T16:22:24;57.78;;;31.70;;
25207;SDS011;13153;52.316;21.166;2023-02-11T16:24:54;58.53;;;29.80;;
25207;SDS011;13153;52.316;21.166;2023-02-11T16:29:54;58.78;;;32.15;;
25207;SDS011;13153;52.316;21.166;2023-02-11T16:32:28;62.00;;;30.90;;
25207;SDS011;13153;52.316;21.166;2023-02-11T16:34:55;55.85;;;29.40;;
25207;SDS011;13153;52.316;21.166;2023-02-11T16:37:24;57.10;;;29.27;;
25207;SDS011;13153;52.316;21.166;2023-02-11T16:39:54;58.38;;;32.10;;
25207;SDS011;13153;52.316;21.166;2023-02-11T16:42:22;56.88;;;29.48;;
25207;SDS011;13153;52.316;21.166;2023-02-11T16:44:48;56.25;;;29.40;;
25207;SDS011;13153;52.316;21.166;2023-02-11T16:47:24;52.95;;;28.42;;
25207;SDS011;13153;52.316;21.166;2023-02-11T16:49:52;55.97;;;29.77;;
25207;SDS011;13153;52.316;21.166;2023-02-11T16:52:20;56.10;;;28.75;;
25207;SDS011;13153;52.316;21.166;2023-02-11T16:54:47;52.83;;;27.15;;
25207;SDS011;13153;52.316;21.166;2023-02-11T16:57:17;50.95;;;27.27;;
25207;SDS011;13153;52.316;21.166;2023-02-11T16:59:46;47.50;;;26.63;;
25207;SDS011;13153;52.316;21.166;2023-02-11T17:02:14;45.45;;;25.50;;
25207;SDS011;13153;52.316;21.166;2023-02-11T17:04:49;47.13;;;25.92;;
25207;SDS011;13153;52.316;21.166;2023-02-11T17:07:20;49.53;;;26.20;;
25207;SDS011;13153;52.316;21.166;2023-02-11T17:09:46;47.45;;;26.27;;
25207;SDS011;13153;52.316;21.166;2023-02-11T17:12:12;50.25;;;26.83;;
25207;SDS011;13153;52.316;21.166;2023-02-11T17:14:38;50.65;;;26.95;;
25207;SDS011;13153;52.316;21.166;2023-02-11T17:17:04;47.63;;;26.42;;
25207;SDS011;13153;52.316;21.166;2023-02-11T17:19:29;46.42;;;25.98;;
25207;SDS011;13153;52.316;21.166;2023-02-11T17:21:55;51.22;;;28.23;;
25207;SDS011;13153;52.316;21.166;2023-02-11T17:24:21;45.67;;;26.33;;
25207;SDS011;13153;52.316;21.166;2023-02-11T17:26:47;49.65;;;26.90;;
25207;SDS011;13153;52.316;21.166;2023-02-11T17:29:23;49.33;;;26.48;;
25207;SDS011;13153;52.316;21.166;2023-02-11T17:31:50;46.20;;;25.88;;
25207;SDS011;13153;52.316;21.166;2023-02-11T17:34:17;44.75;;;25.88;;
25207;SDS011;13153;52.316;21.166;2023-02-11T17:36:44;59.83;;;31.80;;